createdAt,value
2022-09-06T04:15:33.373Z,100080.22
2022-09-06T04:17:59.843Z,100083.25
2022-09-06T04:20:26.433Z,100080.31
2022-09-06T04:22:53.625Z,100087.81
2022-09-06T04:25:20.131Z,100085.78
2022-09-06T04:27:46.631Z,100091.50
2022-09-06T04:30:13.179Z,100091.22
2022-09-06T04:32:39.647Z,100095.47
2022-09-06T04:35:06.545Z,100095.09
2022-09-06T04:37:33.018Z,100097.13
2022-09-06T04:40:03.310Z,100095.53
2022-09-06T04:42:30.049Z,100106.19
2022-09-06T04:44:56.524Z,100112.91
2022-09-06T04:47:23.158Z,100126.88
2022-09-06T04:49:49.619Z,100136.88
2022-09-06T04:52:16.726Z,100137.66
2022-09-06T04:54:43.551Z,100142.28
2022-09-06T04:57:10.787Z,100141.03
2022-09-06T04:59:37.333Z,100140.50
2022-09-06T05:02:04.023Z,100134.91
2022-09-06T05:04:30.567Z,100142.69
2022-09-06T05:07:02.229Z,100145.00
2022-09-06T05:09:29.078Z,100143.00
2022-09-06T05:11:58.057Z,100144.22
2022-09-06T05:14:24.574Z,100146.66
2022-09-06T05:16:51.445Z,100146.72
2022-09-06T05:19:19.075Z,100145.50
2022-09-06T05:21:45.873Z,100143.66
2022-09-06T05:24:13.638Z,100141.88
2022-09-06T05:26:40.106Z,100133.03
2022-09-06T05:29:06.610Z,100144.81
2022-09-06T05:31:34.715Z,100141.88
2022-09-06T05:34:01.285Z,100149.50
2022-09-06T05:36:29.957Z,100164.22
2022-09-06T05:38:58.676Z,100169.38
2022-09-06T05:41:26.171Z,100166.34
2022-09-06T05:43:54.834Z,100164.25
2022-09-06T05:46:21.341Z,100167.19
2022-09-06T05:48:55.385Z,100172.25
2022-09-06T05:51:21.988Z,100180.72
2022-09-06T05:53:48.597Z,100182.03
2022-09-06T05:56:15.475Z,100185.75
2022-09-06T05:58:42.112Z,100183.38
2022-09-06T06:01:16.246Z,100188.31
2022-09-06T06:03:43.580Z,100188.50
2022-09-06T06:06:10.163Z,100187.81
2022-09-06T06:08:37.770Z,100190.91
2022-09-06T06:11:04.379Z,100190.03
2022-09-06T06:13:34.936Z,100183.00
2022-09-06T06:16:03.274Z,100187.84
2022-09-06T06:18:29.808Z,100190.69
2022-09-06T06:21:22.907Z,100188.63
2022-09-06T06:23:51.547Z,100192.22
2022-09-06T06:26:18.058Z,100201.06
2022-09-06T06:28:44.883Z,100199.06
2022-09-06T06:31:12.247Z,100203.44
2022-09-06T06:33:40.299Z,100202.94
2022-09-06T06:36:13.242Z,100203.72
2022-09-06T06:38:41.716Z,100197.91
2022-09-06T06:41:09.831Z,100206.09
2022-09-06T06:43:37.720Z,100202.19
2022-09-06T06:46:06.244Z,100215.09
2022-09-06T06:48:32.814Z,100210.09
2022-09-06T06:50:59.295Z,100210.09
2022-09-06T06:53:26.284Z,100206.25
2022-09-06T06:55:52.880Z,100203.81
2022-09-06T06:58:20.015Z,100206.72
2022-09-06T07:00:46.887Z,100214.16
2022-09-06T07:03:13.711Z,100207.56
2022-09-06T07:08:27.255Z,100217.38
2022-09-06T07:10:53.944Z,100207.59
2022-09-06T07:13:20.799Z,100221.38
2022-09-06T07:15:47.267Z,100216.47
2022-09-06T07:18:16.192Z,100221.06
2022-09-06T07:26:18.321Z,100224.19
2022-09-06T07:28:46.494Z,100226.91
2022-09-06T07:33:59.709Z,100231.69
2022-09-06T07:36:26.279Z,100228.50
2022-09-06T07:38:53.583Z,100228.56
2022-09-06T07:41:20.891Z,100232.88
2022-09-06T07:43:47.569Z,100238.34
2022-09-06T07:46:16.845Z,100241.72
2022-09-06T07:48:45.699Z,100236.69
2022-09-06T07:51:15.152Z,100230.81
2022-09-06T07:53:43.622Z,100236.22
2022-09-06T07:56:12.130Z,100229.75
2022-09-06T07:58:40.068Z,100237.88
2022-09-06T08:01:28.126Z,100233.94
2022-09-06T08:03:54.795Z,100230.94
2022-09-06T08:06:22.895Z,100236.84
2022-09-06T08:08:58.963Z,100236.78
2022-09-06T08:11:28.008Z,100238.25
2022-09-06T08:13:55.957Z,100229.09
2022-09-06T08:18:55.124Z,100228.22
2022-09-06T08:21:23.653Z,100228.66
2022-09-06T08:23:52.971Z,100226.63
2022-09-06T08:26:22.353Z,100230.06
2022-09-06T08:28:57.404Z,100227.28
2022-09-06T08:31:24.513Z,100230.69
2022-09-06T08:33:51.878Z,100232.16
2022-09-06T08:36:18.589Z,100232.06
2022-09-06T08:38:45.832Z,100226.34
2022-09-06T08:41:37.287Z,100223.25
2022-09-06T08:47:00.227Z,100220.03
2022-09-06T08:49:31.153Z,100226.59
2022-09-06T08:52:45.335Z,100220.75
2022-09-06T08:55:37.380Z,100221.97
2022-09-06T08:58:43.258Z,100227.41
2022-09-06T09:01:23.099Z,100219.59
2022-09-06T09:03:57.843Z,100216.66
2022-09-06T09:06:26.569Z,100215.31
2022-09-06T09:09:04.110Z,100200.13
2022-09-06T09:11:33.423Z,100212.31
2022-09-06T09:14:12.046Z,100204.25
2022-09-06T09:16:38.661Z,100211.38
2022-09-06T09:19:06.350Z,100207.72
2022-09-06T09:21:36.430Z,100194.59
2022-09-06T09:24:11.979Z,100196.56
2022-09-06T09:26:51.096Z,100194.84
2022-09-06T09:29:18.163Z,100193.38
2022-09-06T09:31:54.164Z,100190.00
2022-09-06T09:34:34.287Z,100189.50
2022-09-06T09:40:04.288Z,100178.13
2022-09-06T09:42:36.710Z,100172.41
2022-09-06T09:45:27.178Z,100163.16
2022-09-06T09:47:53.876Z,100171.00
2022-09-06T09:50:34.953Z,100165.13
2022-09-06T09:53:14.751Z,100160.59
2022-09-06T09:55:42.252Z,100152.16
2022-09-06T09:58:20.467Z,100161.19
2022-09-06T10:00:47.063Z,100156.44
2022-09-06T10:03:15.916Z,100158.22
2022-09-06T10:05:58.936Z,100151.72
2022-09-06T10:08:33.299Z,100154.06
2022-09-06T10:11:00.741Z,100139.19
2022-09-06T10:13:29.640Z,100145.47
2022-09-06T10:15:58.754Z,100143.69
2022-09-06T10:18:41.687Z,100140.63
2022-09-06T10:21:23.958Z,100135.63
2022-09-06T10:26:55.562Z,100135.31
2022-09-06T10:29:37.160Z,100127.88
2022-09-06T10:32:30.943Z,100120.53
2022-09-06T10:35:05.746Z,100126.19
2022-09-06T10:38:05.733Z,100123.72
2022-09-06T10:41:00.635Z,100123.91
2022-09-06T10:43:38.002Z,100132.59
2022-09-06T10:46:14.614Z,100124.97
2022-09-06T10:48:48.523Z,100124.81
2022-09-06T10:51:42.392Z,100123.44
2022-09-06T10:54:12.174Z,100116.19
2022-09-06T10:56:45.330Z,100110.50
2022-09-06T11:02:37.941Z,100106.53
2022-09-06T11:10:55.563Z,100101.72
2022-09-06T11:13:28.300Z,100099.28
2022-09-06T11:16:06.136Z,100094.25
2022-09-06T11:18:42.928Z,100097.56
2022-09-06T11:21:32.891Z,100084.13
2022-09-06T11:24:15.235Z,100083.13
2022-09-06T11:27:21.877Z,100082.81
2022-09-06T11:29:56.448Z,100088.16
2022-09-06T11:32:28.807Z,100078.50
2022-09-06T11:34:58.920Z,100072.16
2022-09-06T11:37:30.958Z,100068.03
2022-09-06T11:42:54.616Z,100067.63
2022-09-06T11:45:51.597Z,100067.00
2022-09-06T11:48:34.258Z,100067.00
2022-09-06T11:51:12.370Z,100061.06
2022-09-06T11:53:51.083Z,100056.78
2022-09-06T11:57:02.350Z,100057.06
2022-09-06T12:00:03.082Z,100056.28
2022-09-06T12:10:58.176Z,100042.63
2022-09-06T12:17:12.233Z,100044.34
2022-09-06T12:24:31.745Z,100045.47
2022-09-06T12:27:18.325Z,100025.56
2022-09-06T12:30:09.866Z,100036.19
2022-09-06T12:33:37.170Z,100035.16
2022-09-06T12:36:59.623Z,100020.97
2022-09-06T12:40:04.788Z,100020.84
2022-09-06T12:42:50.633Z,100020.56
2022-09-06T12:45:30.685Z,100022.91
2022-09-06T12:52:46.376Z,100013.69
2022-09-06T12:58:58.088Z,100007.34
2022-09-06T13:01:53.232Z,100002.97
2022-09-06T13:04:42.264Z,99993.16
2022-09-06T13:07:21.325Z,99999.81
2022-09-06T13:10:03.153Z,99989.81
2022-09-06T13:19:50.718Z,99981.94
2022-09-06T13:22:49.713Z,99978.53
2022-09-06T13:25:25.404Z,99978.19
2022-09-06T13:27:58.300Z,99970.94
2022-09-06T13:30:35.625Z,99973.97
2022-09-06T13:33:03.987Z,99977.38
2022-09-06T13:35:37.477Z,99964.78
2022-09-06T13:38:33.000Z,99972.09
2022-09-06T13:41:16.726Z,99970.25
2022-09-06T13:43:45.810Z,99977.19
2022-09-06T13:46:12.358Z,99961.78
2022-09-06T13:48:44.187Z,99969.38
2022-09-06T13:51:11.544Z,99969.91
2022-09-06T13:53:38.016Z,99964.81
2022-09-06T13:56:08.643Z,99971.59
2022-09-06T13:58:36.115Z,99958.75
2022-09-06T14:01:04.100Z,99952.16
2022-09-06T14:03:32.787Z,99940.78
2022-09-06T14:06:01.001Z,99943.19
2022-09-06T14:08:49.295Z,99941.81
2022-09-06T14:11:17.726Z,99948.06
2022-09-06T14:13:44.365Z,99937.41
2022-09-06T14:16:12.086Z,99941.81
2022-09-06T14:18:38.756Z,99936.25
2022-09-06T14:21:05.396Z,99930.31
2022-09-06T14:23:31.928Z,99936.91
2022-09-06T14:26:00.776Z,99935.38
2022-09-06T14:28:28.161Z,99937.78
2022-09-06T14:30:55.041Z,99939.06
2022-09-06T14:33:21.728Z,99926.72
2022-09-06T14:35:49.587Z,99930.25
2022-09-06T14:38:16.058Z,99924.13
2022-09-06T14:40:45.481Z,99921.47
2022-09-06T14:43:12.082Z,99917.94
2022-09-06T14:45:38.840Z,99909.94
2022-09-06T14:48:05.769Z,99915.66
2022-09-06T14:50:32.561Z,99902.03
2022-09-06T14:52:59.289Z,99902.09
2022-09-06T14:55:28.085Z,99904.88
2022-09-06T14:57:55.221Z,99898.47
2022-09-06T15:00:22.673Z,99899.16
2022-09-06T15:02:49.206Z,99895.25
2022-09-06T15:05:16.161Z,99900.63
2022-09-06T15:07:43.038Z,99887.97
2022-09-06T15:10:10.835Z,99886.69
2022-09-06T15:12:38.031Z,99880.63
2022-09-06T15:15:05.527Z,99879.38
2022-09-06T15:17:34.185Z,99877.72
2022-09-06T15:20:00.861Z,99877.91
2022-09-06T15:22:27.719Z,99873.69
2022-09-06T15:24:54.203Z,99877.34
2022-09-06T15:27:20.806Z,99874.84
2022-09-06T15:29:47.479Z,99871.25
2022-09-06T15:32:21.189Z,99875.28
2022-09-06T15:34:47.684Z,99877.50
2022-09-06T15:37:14.187Z,99881.50
2022-09-06T15:39:44.969Z,99872.22
2022-09-06T15:42:11.696Z,99869.41
2022-09-06T15:44:38.321Z,99874.47
2022-09-06T15:47:04.970Z,99872.09
2022-09-06T15:49:42.555Z,99880.53
2022-09-06T15:52:09.458Z,99886.38
2022-09-06T15:54:54.708Z,99892.94
2022-09-06T15:57:21.218Z,99897.19
2022-09-06T15:59:47.844Z,99891.25
2022-09-06T16:02:14.794Z,99890.91
2022-09-06T16:04:41.483Z,99896.13
2022-09-06T16:07:08.079Z,99896.81
2022-09-06T16:09:35.023Z,99897.53
2022-09-06T16:12:01.766Z,99890.00
2022-09-06T16:14:28.857Z,99893.66
2022-09-06T16:16:56.222Z,99901.09
2022-09-06T16:19:24.084Z,99892.41
2022-09-06T16:21:50.598Z,99897.69
2022-09-06T16:24:18.474Z,99897.31
2022-09-06T16:26:49.013Z,99908.00
2022-09-06T16:29:17.962Z,99904.06
2022-09-06T16:31:44.739Z,99912.72
2022-09-06T16:34:12.491Z,99908.88
2022-09-06T16:36:39.333Z,99911.03
2022-09-06T16:39:06.877Z,99898.03
2022-09-06T16:41:42.564Z,99891.78
2022-09-06T16:44:14.369Z,99880.94
2022-09-06T16:46:41.731Z,99894.72
2022-09-06T16:49:08.859Z,99985.63
2022-09-06T16:51:35.589Z,99955.50
2022-09-06T16:54:02.625Z,99959.97
2022-09-06T16:56:33.452Z,99964.34
2022-09-06T16:59:02.646Z,99986.47
2022-09-06T17:01:31.427Z,100010.25
2022-09-06T17:04:00.796Z,100025.66
2022-09-06T17:06:38.299Z,100026.75
2022-09-06T17:09:05.207Z,100024.66
2022-09-06T17:11:31.990Z,100040.34
2022-09-06T17:13:58.579Z,100040.41
2022-09-06T17:16:44.309Z,100049.28
2022-09-06T17:19:10.935Z,100065.41
2022-09-06T17:21:39.085Z,100065.63
2022-09-06T17:24:06.924Z,100071.34
2022-09-06T17:26:36.320Z,100074.88
2022-09-06T17:29:03.324Z,100083.31
2022-09-06T17:31:30.209Z,100103.59
2022-09-06T17:33:59.441Z,100112.97
2022-09-06T17:36:30.048Z,100112.13
2022-09-06T17:39:04.866Z,100117.59
2022-09-06T17:41:34.033Z,100110.38
2022-09-06T17:44:10.977Z,100108.19
2022-09-06T17:46:47.760Z,100095.53
2022-09-06T17:49:37.258Z,100086.25
2022-09-06T17:52:03.949Z,100078.97
2022-09-06T17:54:31.699Z,100068.97
2022-09-06T17:56:58.260Z,100061.47
2022-09-06T17:59:25.146Z,100051.25
2022-09-06T18:01:52.374Z,100028.78
2022-09-06T18:04:20.970Z,100013.56
2022-09-06T18:06:47.823Z,99999.00
2022-09-06T18:09:30.079Z,99985.94
2022-09-06T18:11:57.187Z,99979.22
2022-09-06T18:14:23.709Z,99983.69
2022-09-06T18:16:51.993Z,99992.69
2022-09-06T18:19:18.826Z,99988.72
2022-09-06T18:21:46.149Z,99991.69
2022-09-06T18:24:20.154Z,99994.50
2022-09-06T18:26:46.853Z,99997.16
2022-09-06T18:29:16.415Z,99979.91
2022-09-06T18:31:43.593Z,99964.44
2022-09-06T18:34:10.720Z,99954.88
2022-09-06T18:36:39.083Z,99941.34
2022-09-06T18:39:06.344Z,99937.38
2022-09-06T18:41:52.744Z,99930.00
2022-09-06T18:44:19.504Z,99926.50
2022-09-06T18:46:47.100Z,99918.50
2022-09-06T18:49:15.114Z,99912.13
2022-09-06T18:51:42.304Z,99920.00
2022-09-06T18:54:09.908Z,99910.81
2022-09-06T18:56:36.421Z,99907.94
2022-09-06T18:59:05.250Z,99902.41
2022-09-06T19:01:32.873Z,99903.47
2022-09-06T19:04:00.918Z,99898.69
2022-09-06T19:06:29.276Z,99904.31
2022-09-06T19:09:00.571Z,99900.81
2022-09-06T19:11:27.836Z,99892.78
2022-09-06T19:13:55.970Z,99897.56
2022-09-06T19:16:27.147Z,99891.16
2022-09-06T19:18:56.039Z,99887.75
2022-09-06T19:21:25.362Z,99890.06
2022-09-06T19:24:00.506Z,99882.50
2022-09-06T19:26:31.125Z,99880.03
2022-09-06T19:28:59.823Z,99876.63
2022-09-06T19:31:32.242Z,99873.81
2022-09-06T19:33:59.737Z,99865.38
2022-09-06T19:36:27.997Z,99863.25
2022-09-06T19:39:06.598Z,99858.88
2022-09-06T19:41:39.214Z,99853.22
2022-09-06T19:44:08.415Z,99859.72
2022-09-06T19:46:35.655Z,99851.03
2022-09-06T19:49:02.463Z,99842.47
2022-09-06T19:51:37.228Z,99837.00
2022-09-06T19:54:04.094Z,99837.06
2022-09-06T19:56:33.708Z,99830.97
2022-09-06T19:59:06.104Z,99831.81
2022-09-06T20:01:34.158Z,99824.31
2022-09-06T20:04:03.298Z,99823.53
2022-09-06T20:06:30.628Z,99827.97
2022-09-06T20:08:58.721Z,99825.06
2022-09-06T20:11:28.083Z,99828.47
2022-09-06T20:13:55.051Z,99828.78
2022-09-06T20:16:22.065Z,99816.75
2022-09-06T20:18:49.063Z,99823.34
2022-09-06T20:21:18.203Z,99825.28
2022-09-06T20:23:49.610Z,99826.44
2022-09-06T20:26:16.810Z,99823.13
2022-09-06T20:28:44.102Z,99834.44
2022-09-06T20:31:16.440Z,99834.34
2022-09-06T20:33:48.506Z,99833.69
2022-09-06T20:36:16.503Z,99836.34
2022-09-06T20:38:44.508Z,99839.41
2022-09-06T20:41:16.739Z,99835.72
2022-09-06T20:43:43.477Z,99846.06
2022-09-06T20:46:11.219Z,99840.59
2022-09-06T20:48:43.594Z,99836.00
2022-09-06T20:51:18.890Z,99841.13
2022-09-06T20:53:52.927Z,99841.72
2022-09-06T20:56:22.746Z,99841.31
2022-09-06T20:58:54.555Z,99840.47
2022-09-06T21:01:26.150Z,99849.97
2022-09-06T21:03:57.996Z,99845.75
2022-09-06T21:06:25.988Z,99854.59
2022-09-06T21:08:53.291Z,99856.22
2022-09-06T21:11:20.498Z,99852.91
2022-09-06T21:13:51.913Z,99855.84
2022-09-06T21:16:24.419Z,99859.47
2022-09-06T21:18:56.711Z,99853.09
2022-09-06T21:21:25.260Z,99856.81
2022-09-06T21:23:51.883Z,99857.00
2022-09-06T21:26:19.262Z,99857.94
2022-09-06T21:28:47.534Z,99865.66
2022-09-06T21:31:14.292Z,99862.91
2022-09-06T21:33:43.095Z,99855.88
2022-09-06T21:36:12.111Z,99866.91
2022-09-06T21:38:42.159Z,99850.56
2022-09-06T21:41:10.252Z,99855.00
2022-09-06T21:43:36.901Z,99856.53
2022-09-06T21:46:05.469Z,99859.03
2022-09-06T21:48:32.536Z,99859.69
2022-09-06T21:50:59.038Z,99848.81
2022-09-06T21:53:27.088Z,99848.75
2022-09-06T21:56:00.143Z,99853.09
2022-09-06T21:58:27.034Z,99861.84
